sensor_id;sensor_type;location;lat;lon;timestamp;P1;durP1;ratioP1;P2;durP2;ratioP2
2724;SDS011;1370;52.596;13.112;2023-04-07T00:00:41;20.30;;;12.73;;
2724;SDS011;1370;52.596;13.112;2023-04-07T00:03:07;13.13;;;11.63;;
2724;SDS011;1370;52.596;13.112;2023-04-07T00:05:33;13.33;;;10.13;;
2724;SDS011;1370;52.596;13.112;2023-04-07T00:07:58;12.83;;;11.63;;
2724;SDS011;1370;52.596;13.112;2023-04-07T00:10:24;12.67;;;11.47;;
2724;SDS011;1370;52.596;13.112;2023-04-07T00:12:49;18.10;;;12.60;;
2724;SDS011;1370;52.596;13.112;2023-04-07T00:15:18;14.13;;;11.83;;
2724;SDS011;1370;52.596;13.112;2023-04-07T00:17:43;14.47;;;11.97;;
2724;SDS011;1370;52.596;13.112;2023-04-07T00:20:09;17.63;;;13.03;;
2724;SDS011;1370;52.596;13.112;2023-04-07T00:22:35;12.67;;;10.53;;
2724;SDS011;1370;52.596;13.112;2023-04-07T00:25:06;14.70;;;12.37;;
2724;SDS011;1370;52.596;13.112;2023-04-07T00:27:32;14.23;;;12.50;;
2724;SDS011;1370;52.596;13.112;2023-04-07T00:30:00;17.53;;;13.10;;
2724;SDS011;1370;52.596;13.112;2023-04-07T00:32:32;18.73;;;12.17;;
2724;SDS011;1370;52.596;13.112;2023-04-07T00:35:08;13.93;;;11.13;;
2724;SDS011;1370;52.596;13.112;2023-04-07T00:37:34;16.93;;;10.83;;
2724;SDS011;1370;52.596;13.112;2023-04-07T00:39:59;11.90;;;10.90;;
2724;SDS011;1370;52.596;13.112;2023-04-07T00:42:25;13.73;;;11.93;;
2724;SDS011;1370;52.596;13.112;2023-04-07T00:44:55;16.60;;;11.63;;
2724;SDS011;1370;52.596;13.112;2023-04-07T00:47:20;12.83;;;11.50;;
2724;SDS011;1370;52.596;13.112;2023-04-07T00:49:45;20.67;;;13.33;;
2724;SDS011;1370;52.596;13.112;2023-04-07T00:52:13;13.60;;;11.77;;
2724;SDS011;1370;52.596;13.112;2023-04-07T00:54:38;14.47;;;12.83;;
2724;SDS011;1370;52.596;13.112;2023-04-07T00:57:08;14.00;;;12.10;;
2724;SDS011;1370;52.596;13.112;2023-04-07T00:59:33;14.97;;;11.67;;
2724;SDS011;1370;52.596;13.112;2023-04-07T01:02:02;17.40;;;13.97;;
2724;SDS011;1370;52.596;13.112;2023-04-07T01:04:53;15.47;;;12.00;;
2724;SDS011;1370;52.596;13.112;2023-04-07T01:07:31;16.60;;;13.30;;
2724;SDS011;1370;52.596;13.112;2023-04-07T01:10:09;15.60;;;12.17;;
2724;SDS011;1370;52.596;13.112;2023-04-07T01:12:48;16.80;;;14.03;;
2724;SDS011;1370;52.596;13.112;2023-04-07T01:15:24;17.27;;;12.67;;
2724;SDS011;1370;52.596;13.112;2023-04-07T01:17:52;14.23;;;12.73;;
2724;SDS011;1370;52.596;13.112;2023-04-07T01:20:30;15.50;;;12.90;;
2724;SDS011;1370;52.596;13.112;2023-04-07T01:23:05;15.50;;;13.53;;
2724;SDS011;1370;52.596;13.112;2023-04-07T01:28:40;15.60;;;14.00;;
2724;SDS011;1370;52.596;13.112;2023-04-07T01:31:11;19.37;;;15.90;;
2724;SDS011;1370;52.596;13.112;2023-04-07T01:33:39;18.23;;;14.93;;
2724;SDS011;1370;52.596;13.112;2023-04-07T01:36:08;19.97;;;14.37;;
2724;SDS011;1370;52.596;13.112;2023-04-07T01:38:33;18.50;;;14.13;;
2724;SDS011;1370;52.596;13.112;2023-04-07T01:40:59;14.43;;;12.83;;
2724;SDS011;1370;52.596;13.112;2023-04-07T01:43:29;21.40;;;14.03;;
2724;SDS011;1370;52.596;13.112;2023-04-07T01:45:55;16.03;;;13.93;;
2724;SDS011;1370;52.596;13.112;2023-04-07T01:48:21;12.53;;;11.50;;
2724;SDS011;1370;52.596;13.112;2023-04-07T01:50:47;16.57;;;13.97;;
2724;SDS011;1370;52.596;13.112;2023-04-07T01:53:14;14.73;;;12.80;;
2724;SDS011;1370;52.596;13.112;2023-04-07T01:55:43;16.23;;;12.30;;
2724;SDS011;1370;52.596;13.112;2023-04-07T01:58:08;14.30;;;12.80;;
2724;SDS011;1370;52.596;13.112;2023-04-07T02:00:34;15.50;;;12.20;;
2724;SDS011;1370;52.596;13.112;2023-04-07T02:03:12;18.63;;;13.13;;
2724;SDS011;1370;52.596;13.112;2023-04-07T02:05:44;15.30;;;12.00;;
2724;SDS011;1370;52.596;13.112;2023-04-07T02:08:11;16.63;;;13.47;;
2724;SDS011;1370;52.596;13.112;2023-04-07T02:10:40;18.40;;;15.23;;
2724;SDS011;1370;52.596;13.112;2023-04-07T02:13:09;19.13;;;15.10;;
2724;SDS011;1370;52.596;13.112;2023-04-07T02:15:40;14.70;;;13.40;;
2724;SDS011;1370;52.596;13.112;2023-04-07T02:18:06;19.87;;;14.70;;
2724;SDS011;1370;52.596;13.112;2023-04-07T02:20:37;18.30;;;12.50;;
2724;SDS011;1370;52.596;13.112;2023-04-07T02:23:08;15.30;;;12.50;;
2724;SDS011;1370;52.596;13.112;2023-04-07T02:25:34;15.73;;;12.13;;
2724;SDS011;1370;52.596;13.112;2023-04-07T02:28:03;17.90;;;12.00;;
2724;SDS011;1370;52.596;13.112;2023-04-07T02:30:29;13.33;;;12.03;;
2724;SDS011;1370;52.596;13.112;2023-04-07T02:32:54;17.00;;;12.43;;
2724;SDS011;1370;52.596;13.112;2023-04-07T02:35:20;13.17;;;11.30;;
2724;SDS011;1370;52.596;13.112;2023-04-07T02:37:45;16.43;;;11.87;;
2724;SDS011;1370;52.596;13.112;2023-04-07T02:40:13;14.07;;;12.60;;
2724;SDS011;1370;52.596;13.112;2023-04-07T02:42:39;15.33;;;13.57;;
2724;SDS011;1370;52.596;13.112;2023-04-07T02:45:05;13.80;;;12.20;;
2724;SDS011;1370;52.596;13.112;2023-04-07T02:47:35;13.10;;;11.70;;
2724;SDS011;1370;52.596;13.112;2023-04-07T02:50:02;13.93;;;12.33;;
2724;SDS011;1370;52.596;13.112;2023-04-07T02:52:27;14.50;;;12.53;;
2724;SDS011;1370;52.596;13.112;2023-04-07T02:54:53;15.13;;;13.50;;
2724;SDS011;1370;52.596;13.112;2023-04-07T02:57:18;17.97;;;12.40;;
2724;SDS011;1370;52.596;13.112;2023-04-07T02:59:43;15.50;;;12.53;;
2724;SDS011;1370;52.596;13.112;2023-04-07T03:02:09;16.20;;;12.50;;
2724;SDS011;1370;52.596;13.112;2023-04-07T03:04:34;16.17;;;11.47;;
2724;SDS011;1370;52.596;13.112;2023-04-07T03:07:02;12.73;;;11.23;;
2724;SDS011;1370;52.596;13.112;2023-04-07T03:09:28;21.13;;;14.00;;
2724;SDS011;1370;52.596;13.112;2023-04-07T03:11:55;13.40;;;12.07;;
2724;SDS011;1370;52.596;13.112;2023-04-07T03:14:22;13.37;;;11.97;;
2724;SDS011;1370;52.596;13.112;2023-04-07T03:16:47;12.67;;;11.37;;
2724;SDS011;1370;52.596;13.112;2023-04-07T03:19:13;13.50;;;12.10;;
2724;SDS011;1370;52.596;13.112;2023-04-07T03:21:45;20.23;;;11.83;;
2724;SDS011;1370;52.596;13.112;2023-04-07T03:24:11;14.03;;;12.63;;
2724;SDS011;1370;52.596;13.112;2023-04-07T03:26:38;14.67;;;11.93;;
2724;SDS011;1370;52.596;13.112;2023-04-07T03:29:04;15.23;;;11.47;;
2724;SDS011;1370;52.596;13.112;2023-04-07T03:31:29;14.03;;;11.60;;
2724;SDS011;1370;52.596;13.112;2023-04-07T03:33:55;12.13;;;11.03;;
2724;SDS011;1370;52.596;13.112;2023-04-07T03:36:20;13.57;;;12.17;;
2724;SDS011;1370;52.596;13.112;2023-04-07T03:38:46;15.70;;;11.70;;
2724;SDS011;1370;52.596;13.112;2023-04-07T03:41:14;13.73;;;10.93;;
2724;SDS011;1370;52.596;13.112;2023-04-07T03:43:40;13.70;;;10.80;;
2724;SDS011;1370;52.596;13.112;2023-04-07T03:46:05;14.00;;;12.53;;
2724;SDS011;1370;52.596;13.112;2023-04-07T03:48:31;11.60;;;10.47;;
2724;SDS011;1370;52.596;13.112;2023-04-07T03:51:00;12.00;;;10.30;;
2724;SDS011;1370;52.596;13.112;2023-04-07T03:53:25;19.10;;;12.40;;
2724;SDS011;1370;52.596;13.112;2023-04-07T03:55:51;15.90;;;11.70;;
2724;SDS011;1370;52.596;13.112;2023-04-07T03:58:16;13.23;;;11.90;;
2724;SDS011;1370;52.596;13.112;2023-04-07T04:00:41;11.10;;;10.20;;
2724;SDS011;1370;52.596;13.112;2023-04-07T04:03:07;18.40;;;11.80;;
2724;SDS011;1370;52.596;13.112;2023-04-07T04:05:35;13.60;;;12.20;;
2724;SDS011;1370;52.596;13.112;2023-04-07T04:08:00;12.70;;;11.40;;
2724;SDS011;1370;52.596;13.112;2023-04-07T04:10:29;13.23;;;11.47;;
2724;SDS011;1370;52.596;13.112;2023-04-07T04:12:54;17.40;;;11.77;;
2724;SDS011;1370;52.596;13.112;2023-04-07T04:15:33;12.40;;;11.30;;
2724;SDS011;1370;52.596;13.112;2023-04-07T04:17:59;17.83;;;11.93;;
2724;SDS011;1370;52.596;13.112;2023-04-07T04:20:24;16.07;;;13.33;;
2724;SDS011;1370;52.596;13.112;2023-04-07T04:22:49;13.90;;;12.60;;
2724;SDS011;1370;52.596;13.112;2023-04-07T04:25:15;16.77;;;12.63;;
2724;SDS011;1370;52.596;13.112;2023-04-07T04:27:44;13.53;;;11.90;;
2724;SDS011;1370;52.596;13.112;2023-04-07T04:30:10;14.30;;;12.53;;
2724;SDS011;1370;52.596;13.112;2023-04-07T04:32:35;18.53;;;12.70;;
2724;SDS011;1370;52.596;13.112;2023-04-07T04:35:03;18.53;;;13.40;;
2724;SDS011;1370;52.596;13.112;2023-04-07T04:37:29;21.23;;;13.10;;
2724;SDS011;1370;52.596;13.112;2023-04-07T04:39:59;14.17;;;12.70;;
2724;SDS011;1370;52.596;13.112;2023-04-07T04:42:24;13.40;;;12.03;;
2724;SDS011;1370;52.596;13.112;2023-04-07T04:44:54;22.47;;;14.23;;
2724;SDS011;1370;52.596;13.112;2023-04-07T04:47:20;18.30;;;11.60;;
2724;SDS011;1370;52.596;13.112;2023-04-07T04:49:46;16.47;;;11.90;;
2724;SDS011;1370;52.596;13.112;2023-04-07T04:52:11;17.13;;;12.60;;
2724;SDS011;1370;52.596;13.112;2023-04-07T04:54:42;14.60;;;12.97;;
2724;SDS011;1370;52.596;13.112;2023-04-07T04:57:07;17.93;;;12.00;;
2724;SDS011;1370;52.596;13.112;2023-04-07T04:59:32;20.27;;;13.17;;
2724;SDS011;1370;52.596;13.112;2023-04-07T05:01:58;15.00;;;12.63;;
2724;SDS011;1370;52.596;13.112;2023-04-07T05:04:23;16.00;;;12.60;;
2724;SDS011;1370;52.596;13.112;2023-04-07T05:06:49;17.03;;;13.40;;
2724;SDS011;1370;52.596;13.112;2023-04-07T05:09:17;13.43;;;12.07;;
2724;SDS011;1370;52.596;13.112;2023-04-07T05:11:42;15.70;;;14.07;;
2724;SDS011;1370;52.596;13.112;2023-04-07T05:14:08;14.03;;;11.93;;
2724;SDS011;1370;52.596;13.112;2023-04-07T05:16:41;12.87;;;11.63;;
2724;SDS011;1370;52.596;13.112;2023-04-07T05:19:08;13.93;;;11.77;;
2724;SDS011;1370;52.596;13.112;2023-04-07T05:21:34;14.43;;;12.37;;
2724;SDS011;1370;52.596;13.112;2023-04-07T05:24:02;14.13;;;11.30;;
2724;SDS011;1370;52.596;13.112;2023-04-07T05:26:31;13.50;;;12.07;;
2724;SDS011;1370;52.596;13.112;2023-04-07T05:28:59;15.70;;;12.30;;
2724;SDS011;1370;52.596;13.112;2023-04-07T05:31:25;14.37;;;11.20;;
2724;SDS011;1370;52.596;13.112;2023-04-07T05:33:50;14.37;;;11.20;;
2724;SDS011;1370;52.596;13.112;2023-04-07T05:36:16;12.00;;;10.53;;
2724;SDS011;1370;52.596;13.112;2023-04-07T05:38:43;12.43;;;10.93;;
2724;SDS011;1370;52.596;13.112;2023-04-07T05:41:09;10.90;;;9.90;;
2724;SDS011;1370;52.596;13.112;2023-04-07T05:43:34;14.53;;;11.57;;
2724;SDS011;1370;52.596;13.112;2023-04-07T05:46:08;14.07;;;9.60;;
2724;SDS011;1370;52.596;13.112;2023-04-07T05:48:33;20.00;;;10.97;;
2724;SDS011;1370;52.596;13.112;2023-04-07T05:50:59;15.80;;;10.80;;
2724;SDS011;1370;52.596;13.112;2023-04-07T05:53:24;17.53;;;10.50;;
2724;SDS011;1370;52.596;13.112;2023-04-07T05:55:50;14.07;;;11.17;;
2724;SDS011;1370;52.596;13.112;2023-04-07T05:58:15;15.80;;;11.00;;
2724;SDS011;1370;52.596;13.112;2023-04-07T06:00:40;15.50;;;11.80;;
2724;SDS011;1370;52.596;13.112;2023-04-07T06:03:06;13.83;;;11.10;;
2724;SDS011;1370;52.596;13.112;2023-04-07T06:05:31;11.70;;;10.57;;
2724;SDS011;1370;52.596;13.112;2023-04-07T06:07:56;13.33;;;11.77;;
2724;SDS011;1370;52.596;13.112;2023-04-07T06:10:22;11.43;;;10.20;;
2724;SDS011;1370;52.596;13.112;2023-04-07T06:12:47;14.13;;;11.10;;
2724;SDS011;1370;52.596;13.112;2023-04-07T06:15:12;14.93;;;10.47;;
2724;SDS011;1370;52.596;13.112;2023-04-07T06:17:37;13.20;;;11.20;;
2724;SDS011;1370;52.596;13.112;2023-04-07T06:20:06;15.17;;;12.70;;
2724;SDS011;1370;52.596;13.112;2023-04-07T06:22:31;16.30;;;11.03;;
2724;SDS011;1370;52.596;13.112;2023-04-07T06:24:57;13.27;;;10.53;;
2724;SDS011;1370;52.596;13.112;2023-04-07T06:27:22;11.07;;;9.93;;
2724;SDS011;1370;52.596;13.112;2023-04-07T06:29:47;17.43;;;11.03;;
2724;SDS011;1370;52.596;13.112;2023-04-07T06:32:18;13.00;;;9.90;;
2724;SDS011;1370;52.596;13.112;2023-04-07T06:34:46;12.50;;;10.00;;
2724;SDS011;1370;52.596;13.112;2023-04-07T06:37:12;12.60;;;9.60;;
2724;SDS011;1370;52.596;13.112;2023-04-07T06:39:39;12.07;;;10.60;;
2724;SDS011;1370;52.596;13.112;2023-04-07T06:42:05;12.20;;;10.70;;
2724;SDS011;1370;52.596;13.112;2023-04-07T06:44:30;15.70;;;11.17;;
2724;SDS011;1370;52.596;13.112;2023-04-07T06:46:58;17.40;;;11.83;;
2724;SDS011;1370;52.596;13.112;2023-04-07T06:49:24;13.20;;;10.83;;
2724;SDS011;1370;52.596;13.112;2023-04-07T06:51:50;14.47;;;10.90;;
2724;SDS011;1370;52.596;13.112;2023-04-07T06:54:18;13.13;;;11.60;;
2724;SDS011;1370;52.596;13.112;2023-04-07T06:56:43;16.07;;;10.80;;
2724;SDS011;1370;52.596;13.112;2023-04-07T06:59:08;14.50;;;10.20;;
2724;SDS011;1370;52.596;13.112;2023-04-07T07:01:34;12.90;;;10.07;;
2724;SDS011;1370;52.596;13.112;2023-04-07T07:03:59;11.20;;;10.00;;
2724;SDS011;1370;52.596;13.112;2023-04-07T07:06:27;13.37;;;10.40;;
2724;SDS011;1370;52.596;13.112;2023-04-07T07:08:53;11.63;;;9.83;;
2724;SDS011;1370;52.596;13.112;2023-04-07T07:11:18;17.77;;;11.80;;
2724;SDS011;1370;52.596;13.112;2023-04-07T07:13:46;18.73;;;10.70;;
2724;SDS011;1370;52.596;13.112;2023-04-07T07:16:12;15.30;;;10.40;;
2724;SDS011;1370;52.596;13.112;2023-04-07T07:18:37;38.67;;;24.90;;
2724;SDS011;1370;52.596;13.112;2023-04-07T07:21:05;35.97;;;21.60;;
2724;SDS011;1370;52.596;13.112;2023-04-07T07:23:31;25.93;;;18.60;;
2724;SDS011;1370;52.596;13.112;2023-04-07T07:25:59;16.80;;;12.80;;
2724;SDS011;1370;52.596;13.112;2023-04-07T07:28:25;15.33;;;11.87;;
2724;SDS011;1370;52.596;13.112;2023-04-07T07:30:50;11.03;;;9.80;;
2724;SDS011;1370;52.596;13.112;2023-04-07T07:33:19;10.60;;;9.53;;
2724;SDS011;1370;52.596;13.112;2023-04-07T07:35:46;13.17;;;9.80;;
2724;SDS011;1370;52.596;13.112;2023-04-07T07:38:14;14.00;;;11.13;;
2724;SDS011;1370;52.596;13.112;2023-04-07T07:40:42;16.50;;;11.47;;
2724;SDS011;1370;52.596;13.112;2023-04-07T07:43:15;16.30;;;12.03;;
2724;SDS011;1370;52.596;13.112;2023-04-07T07:45:41;16.17;;;13.33;;
2724;SDS011;1370;52.596;13.112;2023-04-07T07:48:10;12.93;;;10.00;;
2724;SDS011;1370;52.596;13.112;2023-04-07T07:50:38;25.47;;;16.40;;
2724;SDS011;1370;52.596;13.112;2023-04-07T07:53:08;20.37;;;13.57;;
2724;SDS011;1370;52.596;13.112;2023-04-07T07:55:40;10.00;;;9.00;;
2724;SDS011;1370;52.596;13.112;2023-04-07T07:58:05;8.30;;;7.60;;
2724;SDS011;1370;52.596;13.112;2023-04-07T08:00:31;9.50;;;7.63;;
2724;SDS011;1370;52.596;13.112;2023-04-07T08:02:59;9.00;;;7.20;;
2724;SDS011;1370;52.596;13.112;2023-04-07T08:05:25;9.03;;;7.30;;
2724;SDS011;1370;52.596;13.112;2023-04-07T08:07:51;8.47;;;7.70;;
2724;SDS011;1370;52.596;13.112;2023-04-07T08:10:17;12.20;;;8.23;;
2724;SDS011;1370;52.596;13.112;2023-04-07T08:12:44;8.60;;;6.50;;
2724;SDS011;1370;52.596;13.112;2023-04-07T08:15:12;8.80;;;7.13;;
2724;SDS011;1370;52.596;13.112;2023-04-07T08:17:37;8.40;;;7.07;;
2724;SDS011;1370;52.596;13.112;2023-04-07T08:20:03;6.50;;;5.90;;
2724;SDS011;1370;52.596;13.112;2023-04-07T08:22:29;10.80;;;6.20;;
2724;SDS011;1370;52.596;13.112;2023-04-07T08:24:54;8.37;;;6.27;;
2724;SDS011;1370;52.596;13.112;2023-04-07T08:27:20;6.63;;;5.87;;
2724;SDS011;1370;52.596;13.112;2023-04-07T08:29:49;7.60;;;5.93;;
2724;SDS011;1370;52.596;13.112;2023-04-07T08:32:24;6.97;;;6.40;;
2724;SDS011;1370;52.596;13.112;2023-04-07T08:34:50;10.43;;;7.27;;
2724;SDS011;1370;52.596;13.112;2023-04-07T08:37:15;10.60;;;6.13;;
2724;SDS011;1370;52.596;13.112;2023-04-07T08:39:41;7.43;;;6.77;;
2724;SDS011;1370;52.596;13.112;2023-04-07T08:42:06;6.20;;;5.70;;
2724;SDS011;1370;52.596;13.112;2023-04-07T08:44:35;7.07;;;5.67;;
2724;SDS011;1370;52.596;13.112;2023-04-07T08:47:01;7.90;;;7.20;;
2724;SDS011;1370;52.596;13.112;2023-04-07T08:49:31;11.40;;;7.00;;
2724;SDS011;1370;52.596;13.112;2023-04-07T08:51:57;6.07;;;5.50;;
2724;SDS011;1370;52.596;13.112;2023-04-07T08:54:24;7.00;;;6.30;;
2724;SDS011;1370;52.596;13.112;2023-04-07T08:56:49;8.80;;;6.93;;
2724;SDS011;1370;52.596;13.112;2023-04-07T08:59:15;6.40;;;5.87;;
2724;SDS011;1370;52.596;13.112;2023-04-07T09:01:42;6.70;;;5.93;;
2724;SDS011;1370;52.596;13.112;2023-04-07T09:04:08;13.47;;;7.80;;
2724;SDS011;1370;52.596;13.112;2023-04-07T09:06:34;8.53;;;6.70;;
2724;SDS011;1370;52.596;13.112;2023-04-07T09:09:00;10.47;;;6.47;;
2724;SDS011;1370;52.596;13.112;2023-04-07T09:11:26;9.97;;;6.80;;
2724;SDS011;1370;52.596;13.112;2023-04-07T09:13:52;9.30;;;7.30;;
2724;SDS011;1370;52.596;13.112;2023-04-07T09:16:17;12.10;;;7.20;;
2724;SDS011;1370;52.596;13.112;2023-04-07T09:18:43;11.87;;;8.30;;
2724;SDS011;1370;52.596;13.112;2023-04-07T09:21:08;11.23;;;7.17;;
2724;SDS011;1370;52.596;13.112;2023-04-07T09:23:34;14.07;;;6.67;;
2724;SDS011;1370;52.596;13.112;2023-04-07T09:28:43;34.00;;;7.77;;
2724;SDS011;1370;52.596;13.112;2023-04-07T09:31:09;12.33;;;7.30;;
2724;SDS011;1370;52.596;13.112;2023-04-07T09:33:34;22.87;;;6.87;;
2724;SDS011;1370;52.596;13.112;2023-04-07T09:36:00;192.43;;;26.73;;
2724;SDS011;1370;52.596;13.112;2023-04-07T09:38:33;22.50;;;8.10;;
2724;SDS011;1370;52.596;13.112;2023-04-07T09:41:09;97.30;;;19.73;;
2724;SDS011;1370;52.596;13.112;2023-04-07T09:43:40;7.43;;;6.60;;
2724;SDS011;1370;52.596;13.112;2023-04-07T09:46:07;7.87;;;7.13;;
2724;SDS011;1370;52.596;13.112;2023-04-07T09:48:36;7.50;;;6.07;;
2724;SDS011;1370;52.596;13.112;2023-04-07T09:51:06;6.63;;;5.83;;
2724;SDS011;1370;52.596;13.112;2023-04-07T09:53:49;13.33;;;7.20;;
2724;SDS011;1370;52.596;13.112;2023-04-07T09:56:16;8.17;;;7.40;;
2724;SDS011;1370;52.596;13.112;2023-04-07T09:58:42;9.30;;;6.97;;
2724;SDS011;1370;52.596;13.112;2023-04-07T10:01:10;6.67;;;6.07;;
2724;SDS011;1370;52.596;13.112;2023-04-07T10:03:35;17.70;;;8.80;;
2724;SDS011;1370;52.596;13.112;2023-04-07T10:06:01;6.93;;;6.23;;
2724;SDS011;1370;52.596;13.112;2023-04-07T10:08:27;6.23;;;5.53;;
2724;SDS011;1370;52.596;13.112;2023-04-07T10:10:53;14.60;;;7.00;;
2724;SDS011;1370;52.596;13.112;2023-04-07T10:13:19;7.80;;;5.20;;
2724;SDS011;1370;52.596;13.112;2023-04-07T10:15:45;7.07;;;5.37;;
2724;SDS011;1370;52.596;13.112;2023-04-07T10:18:10;6.27;;;5.67;;
2724;SDS011;1370;52.596;13.112;2023-04-07T10:20:38;10.73;;;5.63;;
2724;SDS011;1370;52.596;13.112;2023-04-07T10:23:08;157.27;;;21.57;;
2724;SDS011;1370;52.596;13.112;2023-04-07T10:25:41;13.70;;;6.57;;
2724;SDS011;1370;52.596;13.112;2023-04-07T10:28:07;8.03;;;6.43;;
2724;SDS011;1370;52.596;13.112;2023-04-07T10:30:33;7.53;;;5.00;;
2724;SDS011;1370;52.596;13.112;2023-04-07T10:32:59;4.00;;;3.70;;
2724;SDS011;1370;52.596;13.112;2023-04-07T10:35:24;5.57;;;5.03;;
2724;SDS011;1370;52.596;13.112;2023-04-07T10:38:32;11.20;;;4.00;;
2724;SDS011;1370;52.596;13.112;2023-04-07T10:40:40;4.90;;;4.50;;
2724;SDS011;1370;52.596;13.112;2023-04-07T10:43:06;5.53;;;4.00;;
2724;SDS011;1370;52.596;13.112;2023-04-07T10:48:12;17.30;;;4.80;;
2724;SDS011;1370;52.596;13.112;2023-04-07T10:50:38;6.00;;;4.50;;
2724;SDS011;1370;52.596;13.112;2023-04-07T10:53:04;7.77;;;4.80;;
2724;SDS011;1370;52.596;13.112;2023-04-07T10:55:37;5.00;;;3.23;;
2724;SDS011;1370;52.596;13.112;2023-04-07T11:03:25;4.47;;;3.67;;
2724;SDS011;1370;52.596;13.112;2023-04-07T11:05:52;3.30;;;3.03;;
2724;SDS011;1370;52.596;13.112;2023-04-07T11:08:36;6.27;;;3.87;;
2724;SDS011;1370;52.596;13.112;2023-04-07T11:11:09;5.30;;;4.20;;
2724;SDS011;1370;52.596;13.112;2023-04-07T11:13:42;4.10;;;3.70;;
2724;SDS011;1370;52.596;13.112;2023-04-07T11:16:11;5.80;;;3.33;;
2724;SDS011;1370;52.596;13.112;2023-04-07T11:18:37;4.07;;;3.67;;
2724;SDS011;1370;52.596;13.112;2023-04-07T11:21:04;4.43;;;3.97;;
2724;SDS011;1370;52.596;13.112;2023-04-07T11:23:40;4.57;;;4.00;;
2724;SDS011;1370;52.596;13.112;2023-04-07T11:26:07;5.60;;;3.77;;
2724;SDS011;1370;52.596;13.112;2023-04-07T11:28:34;5.70;;;4.37;;
2724;SDS011;1370;52.596;13.112;2023-04-07T11:31:01;7.33;;;5.33;;
2724;SDS011;1370;52.596;13.112;2023-04-07T11:33:28;15.63;;;12.90;;
2724;SDS011;1370;52.596;13.112;2023-04-07T11:35:55;21.53;;;19.53;;
2724;SDS011;1370;52.596;13.112;2023-04-07T11:38:29;21.37;;;19.30;;
2724;SDS011;1370;52.596;13.112;2023-04-07T11:41:08;24.60;;;18.93;;
2724;SDS011;1370;52.596;13.112;2023-04-07T11:43:34;14.10;;;12.00;;
2724;SDS011;1370;52.596;13.112;2023-04-07T11:46:05;8.60;;;7.80;;
2724;SDS011;1370;52.596;13.112;2023-04-07T11:48:38;18.70;;;16.90;;
2724;SDS011;1370;52.596;13.112;2023-04-07T11:51:05;7.80;;;7.10;;
2724;SDS011;1370;52.596;13.112;2023-04-07T11:53:35;10.77;;;9.20;;
2724;SDS011;1370;52.596;13.112;2023-04-07T11:56:05;10.43;;;9.47;;
2724;SDS011;1370;52.596;13.112;2023-04-07T11:58:37;9.53;;;7.10;;
2724;SDS011;1370;52.596;13.112;2023-04-07T12:01:03;8.40;;;7.70;;
2724;SDS011;1370;52.596;13.112;2023-04-07T12:03:33;9.93;;;9.10;;
2724;SDS011;1370;52.596;13.112;2023-04-07T12:05:59;12.20;;;11.20;;
2724;SDS011;1370;52.596;13.112;2023-04-07T12:08:38;11.30;;;10.30;;
2724;SDS011;1370;52.596;13.112;2023-04-07T12:11:07;8.80;;;8.00;;
2724;SDS011;1370;52.596;13.112;2023-04-07T12:13:33;7.10;;;6.60;;
2724;SDS011;1370;52.596;13.112;2023-04-07T12:16:02;6.20;;;5.63;;
2724;SDS011;1370;52.596;13.112;2023-04-07T12:18:27;6.17;;;5.60;;
2724;SDS011;1370;52.596;13.112;2023-04-07T12:20:53;5.00;;;4.60;;
2724;SDS011;1370;52.596;13.112;2023-04-07T12:23:19;5.90;;;5.30;;
2724;SDS011;1370;52.596;13.112;2023-04-07T12:25:45;4.77;;;4.37;;
2724;SDS011;1370;52.596;13.112;2023-04-07T12:28:10;5.13;;;4.83;;
2724;SDS011;1370;52.596;13.112;2023-04-07T12:30:35;4.50;;;4.30;;
2724;SDS011;1370;52.596;13.112;2023-04-07T12:33:01;4.80;;;4.40;;
2724;SDS011;1370;52.596;13.112;2023-04-07T12:35:27;5.20;;;3.90;;
2724;SDS011;1370;52.596;13.112;2023-04-07T12:37:52;3.80;;;3.50;;
2724;SDS011;1370;52.596;13.112;2023-04-07T12:40:18;3.20;;;3.00;;
2724;SDS011;1370;52.596;13.112;2023-04-07T12:42:43;3.63;;;3.20;;
2724;SDS011;1370;52.596;13.112;2023-04-07T12:45:09;3.00;;;2.80;;
2724;SDS011;1370;52.596;13.112;2023-04-07T12:47:34;3.40;;;3.20;;
2724;SDS011;1370;52.596;13.112;2023-04-07T12:49:59;3.30;;;2.73;;
2724;SDS011;1370;52.596;13.112;2023-04-07T12:52:25;2.37;;;2.17;;
2724;SDS011;1370;52.596;13.112;2023-04-07T12:54:51;3.33;;;2.80;;
2724;SDS011;1370;52.596;13.112;2023-04-07T12:57:17;3.43;;;3.23;;
2724;SDS011;1370;52.596;13.112;2023-04-07T12:59:42;3.77;;;3.50;;
2724;SDS011;1370;52.596;13.112;2023-04-07T13:02:08;4.83;;;3.90;;
2724;SDS011;1370;52.596;13.112;2023-04-07T13:04:33;3.30;;;3.00;;
2724;SDS011;1370;52.596;13.112;2023-04-07T13:06:59;3.20;;;2.73;;
2724;SDS011;1370;52.596;13.112;2023-04-07T13:09:26;5.70;;;5.20;;
2724;SDS011;1370;52.596;13.112;2023-04-07T13:11:52;9.00;;;4.23;;
2724;SDS011;1370;52.596;13.112;2023-04-07T13:14:17;3.10;;;2.90;;
2724;SDS011;1370;52.596;13.112;2023-04-07T13:16:42;3.10;;;2.90;;
2724;SDS011;1370;52.596;13.112;2023-04-07T13:19:08;3.90;;;3.63;;
2724;SDS011;1370;52.596;13.112;2023-04-07T13:21:34;4.27;;;3.87;;
2724;SDS011;1370;52.596;13.112;2023-04-07T13:23:59;4.30;;;3.90;;
2724;SDS011;1370;52.596;13.112;2023-04-07T13:26:24;3.80;;;3.50;;
2724;SDS011;1370;52.596;13.112;2023-04-07T13:28:50;3.30;;;3.10;;
2724;SDS011;1370;52.596;13.112;2023-04-07T13:31:15;3.53;;;3.20;;
2724;SDS011;1370;52.596;13.112;2023-04-07T13:33:41;4.10;;;3.80;;
2724;SDS011;1370;52.596;13.112;2023-04-07T13:36:07;4.00;;;3.70;;
2724;SDS011;1370;52.596;13.112;2023-04-07T13:38:32;5.27;;;4.93;;
2724;SDS011;1370;52.596;13.112;2023-04-07T13:40:57;7.93;;;6.50;;
2724;SDS011;1370;52.596;13.112;2023-04-07T13:43:23;6.40;;;4.77;;
2724;SDS011;1370;52.596;13.112;2023-04-07T13:45:48;4.47;;;4.07;;
2724;SDS011;1370;52.596;13.112;2023-04-07T13:48:13;4.43;;;4.07;;
2724;SDS011;1370;52.596;13.112;2023-04-07T13:50:39;5.93;;;4.80;;
2724;SDS011;1370;52.596;13.112;2023-04-07T13:53:05;5.10;;;4.70;;
2724;SDS011;1370;52.596;13.112;2023-04-07T13:55:30;4.63;;;4.23;;
2724;SDS011;1370;52.596;13.112;2023-04-07T13:57:56;4.10;;;3.80;;
2724;SDS011;1370;52.596;13.112;2023-04-07T14:00:21;4.73;;;4.13;;
2724;SDS011;1370;52.596;13.112;2023-04-07T14:02:46;5.53;;;4.60;;
2724;SDS011;1370;52.596;13.112;2023-04-07T14:05:12;5.50;;;4.47;;
2724;SDS011;1370;52.596;13.112;2023-04-07T14:07:40;4.63;;;4.33;;
2724;SDS011;1370;52.596;13.112;2023-04-07T14:10:05;4.67;;;4.27;;
2724;SDS011;1370;52.596;13.112;2023-04-07T14:12:31;5.80;;;5.10;;
2724;SDS011;1370;52.596;13.112;2023-04-07T14:14:56;5.70;;;4.77;;
2724;SDS011;1370;52.596;13.112;2023-04-07T14:17:21;8.63;;;4.37;;
2724;SDS011;1370;52.596;13.112;2023-04-07T14:19:47;6.73;;;4.63;;
2724;SDS011;1370;52.596;13.112;2023-04-07T14:22:13;4.13;;;3.77;;
2724;SDS011;1370;52.596;13.112;2023-04-07T14:24:38;5.23;;;4.73;;
2724;SDS011;1370;52.596;13.112;2023-04-07T14:27:04;5.17;;;4.73;;
2724;SDS011;1370;52.596;13.112;2023-04-07T14:29:29;6.10;;;5.00;;
2724;SDS011;1370;52.596;13.112;2023-04-07T14:31:54;5.77;;;5.27;;
2724;SDS011;1370;52.596;13.112;2023-04-07T14:34:20;4.47;;;4.00;;
2724;SDS011;1370;52.596;13.112;2023-04-07T14:36:55;5.63;;;5.33;;
2724;SDS011;1370;52.596;13.112;2023-04-07T14:39:22;5.43;;;4.93;;
2724;SDS011;1370;52.596;13.112;2023-04-07T14:41:48;5.33;;;4.93;;
2724;SDS011;1370;52.596;13.112;2023-04-07T14:44:13;3.80;;;3.50;;
2724;SDS011;1370;52.596;13.112;2023-04-07T14:46:39;4.13;;;3.67;;
2724;SDS011;1370;52.596;13.112;2023-04-07T14:49:06;4.70;;;3.43;;
2724;SDS011;1370;52.596;13.112;2023-04-07T14:51:31;4.20;;;3.90;;
2724;SDS011;1370;52.596;13.112;2023-04-07T14:53:57;3.80;;;3.50;;
2724;SDS011;1370;52.596;13.112;2023-04-07T14:56:22;3.83;;;3.53;;
2724;SDS011;1370;52.596;13.112;2023-04-07T14:58:48;4.00;;;3.70;;